SGAS METAR and TAF weather

Enter ICAO airport designator

Example: see airport list

Station Type Date Time Source
SGAS METAR 2016/07/02 07:00 UTC NOAA

SGAS 020700Z 00000KT CAVOK 15/13 Q1017

Station Type Date Time Source
SGAS Decoded METAR 2016/07/02 07:00 UTC NOAA

Asuncion / Aeropuerto, Paraguay (SGAS) 25-16S 057-38W 101M
Jul 02, 2016 - 03:00 AM EDT / 2016.07.02 0700 UTC
Wind: Calm:0
Visibility: greater than 7 mile(s):0
Temperature: 59 F (15 C)
Dew Point: 55 F (13 C)
Relative Humidity: 87%
Pressure (altimeter): 30.03 in. Hg (1017 hPa)
ob: SGAS 020700Z 00000KT CAVOK 15/13 Q1017
cycle: 7

Station Type Date Time Source
SGAS TAF 2016/07/02 06:15 UTC NOAA

TAF TAF SGAS 020410Z 0206/0306 00000KT 8000 NSC TX31/0218Z TN15/0210Z
BECMG 0214/0216 05010KT CAVOK